createdAt,value
2019-01-30T00:00:48.674Z,66.90
2019-01-30T00:03:14.830Z,59.67
2019-01-30T00:05:41.018Z,59.33
2019-01-30T00:08:07.587Z,57.70
2019-01-30T00:10:33.839Z,60.40
2019-01-30T00:13:00.037Z,61.30
2019-01-30T00:15:26.305Z,61.23
2019-01-30T00:17:52.563Z,54.63
2019-01-30T00:20:18.759Z,76.17
2019-01-30T00:22:45.032Z,84.30
2019-01-30T00:25:12.490Z,57.07
2019-01-30T00:27:38.682Z,62.63
2019-01-30T00:30:19.561Z,55.17
2019-01-30T00:32:45.763Z,51.63
2019-01-30T00:35:11.922Z,57.87
2019-01-30T00:37:38.095Z,57.53
2019-01-30T00:40:07.691Z,70.27
2019-01-30T00:42:33.860Z,66.07
2019-01-30T00:45:00.023Z,64.47
2019-01-30T00:47:26.223Z,75.27
2019-01-30T00:49:52.484Z,54.80
2019-01-30T00:52:18.741Z,62.67
2019-01-30T00:54:45.030Z,154.27
2019-01-30T00:57:11.187Z,66.00
2019-01-30T00:59:37.350Z,68.97
2019-01-30T01:02:03.546Z,62.80
2019-01-30T01:04:29.715Z,62.53
2019-01-30T01:06:55.976Z,64.60
2019-01-30T01:09:22.173Z,60.10
2019-01-30T01:11:48.328Z,58.47
2019-01-30T01:14:14.707Z,51.73
2019-01-30T01:16:40.893Z,49.40
2019-01-30T01:19:07.144Z,49.83
2019-01-30T01:21:33.299Z,48.40
2019-01-30T01:23:59.497Z,46.07
2019-01-30T01:26:25.750Z,45.90
2019-01-30T01:28:51.908Z,39.50
2019-01-30T01:31:18.112Z,46.50
2019-01-30T01:33:44.372Z,51.83
2019-01-30T01:36:10.532Z,49.33
2019-01-30T01:38:36.821Z,46.87
2019-01-30T01:41:03.075Z,44.67
2019-01-30T01:43:29.282Z,44.93
2019-01-30T01:45:55.471Z,44.13
2019-01-30T01:48:21.626Z,43.37
2019-01-30T01:50:47.888Z,44.70
2019-01-30T01:53:14.086Z,43.23
2019-01-30T01:55:40.243Z,43.70
2019-01-30T01:58:06.413Z,48.17
2019-01-30T02:00:35.627Z,50.77
2019-01-30T02:03:00.881Z,53.07
2019-01-30T02:05:27.134Z,52.00
2019-01-30T02:07:53.320Z,49.33
2019-01-30T02:10:23.744Z,49.13
2019-01-30T02:12:50.218Z,46.47
2019-01-30T02:15:18.226Z,45.20
2019-01-30T02:17:44.481Z,46.03
2019-01-30T02:20:32.223Z,45.10
2019-01-30T02:22:58.388Z,40.57
2019-01-30T02:25:26.355Z,40.87
2019-01-30T02:27:52.665Z,43.47
2019-01-30T02:30:21.127Z,42.60
2019-01-30T02:32:47.284Z,46.47
2019-01-30T02:35:13.472Z,43.30
2019-01-30T02:37:39.733Z,45.80
2019-01-30T02:40:08.788Z,46.20
2019-01-30T02:42:35.073Z,46.03
2019-01-30T02:45:01.299Z,37.50
2019-01-30T02:47:27.443Z,27.50
2019-01-30T02:49:53.763Z,36.30
2019-01-30T02:52:19.926Z,35.23
2019-01-30T02:54:46.070Z,33.43
2019-01-30T02:57:12.374Z,30.87
2019-01-30T02:59:38.518Z,31.73
2019-01-30T03:02:09.335Z,29.43
2019-01-30T03:04:35.621Z,32.03
2019-01-30T03:07:01.781Z,29.50
2019-01-30T03:09:28.046Z,30.03
2019-01-30T03:11:54.351Z,33.10
2019-01-30T03:14:20.622Z,32.43
2019-01-30T03:16:47.012Z,30.67
2019-01-30T03:19:13.305Z,33.33
2019-01-30T03:21:39.567Z,48.60
2019-01-30T03:24:05.720Z,33.67
2019-01-30T03:26:32.003Z,31.13
2019-01-30T03:28:58.172Z,31.70
2019-01-30T03:31:24.345Z,30.73
2019-01-30T03:33:50.660Z,32.17
2019-01-30T03:36:16.813Z,30.87
2019-01-30T03:38:43.085Z,30.73
2019-01-30T03:41:09.367Z,39.30
2019-01-30T03:43:35.572Z,106.87
2019-01-30T03:46:01.877Z,37.47
2019-01-30T03:48:28.073Z,37.20
2019-01-30T03:50:54.329Z,36.20
2019-01-30T03:53:20.484Z,32.77
2019-01-30T03:55:46.691Z,33.40
2019-01-30T03:58:12.854Z,32.13
2019-01-30T04:00:39.018Z,32.53
2019-01-30T04:03:05.308Z,32.77
2019-01-30T04:05:31.483Z,31.97
2019-01-30T04:07:57.657Z,37.77
2019-01-30T04:10:23.944Z,35.90
2019-01-30T04:12:50.525Z,42.40
2019-01-30T04:15:16.992Z,41.07
2019-01-30T04:17:43.188Z,50.67
2019-01-30T04:20:12.556Z,43.40
2019-01-30T04:22:38.831Z,38.20
2019-01-30T04:25:06.740Z,40.90
2019-01-30T04:27:32.907Z,33.70
2019-01-30T04:29:59.166Z,36.33
2019-01-30T04:32:25.353Z,32.00
2019-01-30T04:34:51.510Z,36.33
2019-01-30T04:37:17.675Z,48.83
2019-01-30T04:39:44.018Z,52.67
2019-01-30T04:42:10.184Z,54.03
2019-01-30T04:44:36.358Z,60.87
2019-01-30T04:47:03.659Z,54.47
2019-01-30T04:49:29.829Z,54.07
2019-01-30T04:51:56.000Z,53.57
2019-01-30T04:54:22.212Z,56.43
2019-01-30T04:56:48.371Z,59.40
2019-01-30T04:59:14.627Z,59.97
2019-01-30T05:01:49.395Z,55.33
2019-01-30T05:04:08.896Z,57.80
2019-01-30T05:06:35.164Z,60.77
2019-01-30T05:09:01.461Z,53.50
2019-01-30T05:11:32.095Z,57.93
2019-01-30T05:13:58.255Z,56.73
2019-01-30T05:16:24.448Z,55.23
2019-01-30T05:18:50.713Z,64.13
2019-01-30T05:21:16.898Z,60.97
2019-01-30T05:23:43.092Z,59.73
2019-01-30T05:26:09.256Z,59.73
2019-01-30T05:28:35.417Z,61.33
2019-01-30T05:31:01.604Z,62.20
2019-01-30T05:33:27.862Z,58.27
2019-01-30T05:35:54.016Z,87.30
2019-01-30T05:38:20.306Z,67.67
2019-01-30T05:40:46.577Z,67.40
2019-01-30T05:43:12.728Z,69.93
2019-01-30T05:45:38.928Z,69.33
2019-01-30T05:48:06.035Z,64.07
2019-01-30T05:50:32.303Z,65.77
2019-01-30T05:52:58.489Z,69.93
2019-01-30T05:55:24.655Z,66.17
2019-01-30T05:57:50.909Z,74.47
2019-01-30T06:00:24.974Z,80.00
2019-01-30T06:02:51.238Z,78.70
2019-01-30T06:05:17.392Z,80.17
2019-01-30T06:07:43.597Z,78.63
2019-01-30T06:10:10.481Z,83.07
2019-01-30T06:12:36.630Z,98.93
2019-01-30T06:15:06.541Z,83.97
2019-01-30T06:17:32.801Z,102.17
2019-01-30T06:19:58.963Z,93.53
2019-01-30T06:22:25.157Z,86.00
2019-01-30T06:24:51.318Z,109.83
2019-01-30T06:27:17.476Z,108.70
2019-01-30T06:29:43.770Z,116.40
2019-01-30T06:32:09.928Z,109.43
2019-01-30T06:34:36.201Z,115.93
2019-01-30T06:37:02.591Z,129.97
2019-01-30T06:39:28.751Z,129.07
2019-01-30T06:41:54.922Z,113.07
2019-01-30T06:44:21.224Z,108.03
2019-01-30T06:46:47.387Z,59.10
2019-01-30T06:49:13.702Z,53.00
2019-01-30T06:51:39.908Z,45.43
2019-01-30T06:54:06.069Z,36.33
2019-01-30T06:56:32.332Z,36.77
2019-01-30T06:58:58.517Z,28.27
2019-01-30T07:01:24.676Z,25.60
2019-01-30T07:03:50.832Z,28.07
2019-01-30T07:06:17.124Z,20.90
2019-01-30T07:08:43.392Z,36.77
2019-01-30T07:11:10.777Z,33.80
2019-01-30T07:13:37.461Z,52.20
2019-01-30T07:16:03.782Z,43.20
2019-01-30T07:18:29.962Z,37.77
2019-01-30T07:20:56.156Z,43.43
2019-01-30T07:23:22.320Z,26.67
2019-01-30T07:25:48.483Z,27.70
2019-01-30T07:28:14.691Z,29.60
2019-01-30T07:30:40.946Z,25.10
2019-01-30T07:33:07.108Z,15.77
2019-01-30T07:35:33.333Z,14.20
2019-01-30T07:37:59.664Z,8.27
2019-01-30T07:40:25.829Z,12.27
2019-01-30T07:42:52.133Z,8.03
2019-01-30T07:45:23.388Z,11.73
2019-01-30T07:47:49.557Z,4.00
2019-01-30T07:50:15.984Z,5.53
2019-01-30T07:52:42.555Z,9.20
2019-01-30T07:55:11.829Z,9.67
2019-01-30T07:57:38.135Z,10.40
2019-01-30T08:00:13.826Z,10.33
2019-01-30T08:02:40.111Z,8.97
2019-01-30T08:05:08.191Z,6.03
2019-01-30T08:07:34.358Z,7.80
2019-01-30T08:10:00.657Z,6.57
2019-01-30T08:12:26.817Z,7.27
2019-01-30T08:14:52.997Z,8.00
2019-01-30T08:17:21.024Z,9.03
2019-01-30T08:19:47.257Z,6.47
2019-01-30T08:22:13.455Z,7.57
2019-01-30T08:24:40.007Z,8.40
2019-01-30T08:27:06.420Z,10.17
2019-01-30T08:29:33.502Z,10.10
2019-01-30T08:31:59.931Z,9.80
2019-01-30T08:34:26.276Z,7.03
2019-01-30T08:36:52.449Z,6.50
2019-01-30T08:39:18.679Z,7.37
2019-01-30T08:41:45.035Z,6.70
2019-01-30T08:44:11.211Z,8.13
2019-01-30T08:46:37.424Z,8.63
2019-01-30T08:49:03.701Z,6.03
2019-01-30T08:51:29.948Z,7.17
2019-01-30T08:53:56.156Z,6.43
2019-01-30T08:56:22.423Z,6.03
2019-01-30T08:58:48.689Z,4.67
2019-01-30T09:01:14.893Z,4.73
2019-01-30T09:03:41.169Z,3.33
2019-01-30T09:06:07.436Z,4.90
2019-01-30T09:08:33.634Z,4.53
2019-01-30T09:10:59.815Z,2.90
2019-01-30T09:13:26.581Z,3.94
2019-01-30T09:15:52.883Z,5.10
2019-01-30T09:18:19.059Z,3.20
2019-01-30T09:20:45.338Z,3.60
2019-01-30T09:23:11.940Z,3.57
2019-01-30T09:25:38.107Z,5.80
2019-01-30T09:28:04.311Z,3.33
2019-01-30T09:30:33.213Z,6.00
2019-01-30T09:32:59.409Z,5.47
2019-01-30T09:35:25.763Z,4.23
2019-01-30T09:37:51.964Z,4.17
2019-01-30T09:40:19.819Z,4.87
2019-01-30T09:42:46.032Z,3.53
2019-01-30T09:45:17.255Z,3.93
2019-01-30T09:47:43.484Z,5.30
2019-01-30T09:50:13.171Z,6.17
2019-01-30T09:52:39.426Z,6.17
2019-01-30T09:55:08.597Z,5.13
2019-01-30T09:57:34.772Z,5.60
2019-01-30T10:00:01.396Z,24.27
2019-01-30T10:02:27.572Z,7.43
2019-01-30T10:04:53.729Z,6.97
2019-01-30T10:07:20.073Z,7.97
2019-01-30T10:09:46.842Z,5.97
2019-01-30T10:12:13.103Z,6.37
2019-01-30T10:14:42.110Z,6.70
2019-01-30T10:17:08.693Z,6.50
2019-01-30T10:19:34.908Z,6.03
2019-01-30T10:22:01.096Z,5.40
2019-01-30T10:24:29.043Z,5.03
2019-01-30T10:26:58.402Z,3.70
2019-01-30T10:29:24.602Z,5.93
2019-01-30T10:31:50.780Z,6.23
2019-01-30T10:34:17.069Z,6.33
2019-01-30T10:36:43.376Z,5.87
2019-01-30T10:39:09.533Z,5.13
2019-01-30T10:41:37.217Z,6.43
2019-01-30T10:44:03.511Z,4.27
2019-01-30T10:46:29.673Z,4.37
2019-01-30T10:48:55.832Z,4.00
2019-01-30T10:51:22.023Z,5.00
2019-01-30T10:53:49.275Z,5.93
2019-01-30T10:56:16.644Z,5.43
2019-01-30T10:58:42.963Z,3.80
2019-01-30T11:01:09.233Z,4.73
2019-01-30T11:03:35.412Z,4.83
2019-01-30T11:06:01.617Z,5.93
2019-01-30T11:08:27.788Z,5.33
2019-01-30T11:10:53.957Z,5.67
2019-01-30T11:13:20.318Z,5.30
2019-01-30T11:15:46.561Z,5.60
2019-01-30T11:18:14.653Z,6.17
2019-01-30T11:20:40.877Z,5.90
2019-01-30T11:23:07.061Z,6.33
2019-01-30T11:25:36.727Z,6.60
2019-01-30T11:28:03.016Z,7.53
2019-01-30T11:30:29.271Z,8.63
2019-01-30T11:32:55.674Z,8.20
2019-01-30T11:35:22.022Z,6.50
2019-01-30T11:37:48.188Z,8.43
2019-01-30T11:40:19.406Z,7.73
2019-01-30T11:42:45.729Z,5.37
2019-01-30T11:45:17.436Z,5.43
2019-01-30T11:47:43.707Z,6.60
2019-01-30T11:50:12.795Z,6.90
2019-01-30T11:52:39.560Z,6.90
2019-01-30T11:55:08.936Z,8.60
2019-01-30T11:57:35.150Z,7.10
2019-01-30T12:00:01.406Z,7.73
2019-01-30T12:02:27.660Z,5.40
2019-01-30T12:04:53.961Z,6.93
2019-01-30T12:07:20.234Z,7.27
2019-01-30T12:09:46.402Z,7.50
2019-01-30T12:12:12.595Z,9.40
2019-01-30T12:14:38.756Z,8.13
2019-01-30T12:17:05.007Z,6.83
2019-01-30T12:19:31.217Z,8.63
2019-01-30T12:21:57.489Z,5.80
2019-01-30T12:24:23.666Z,5.63
2019-01-30T12:26:49.868Z,5.90
2019-01-30T12:29:16.144Z,5.30
2019-01-30T12:31:42.413Z,6.60
2019-01-30T12:34:09.815Z,6.60
2019-01-30T12:36:36.112Z,5.17
2019-01-30T12:39:07.678Z,8.30
2019-01-30T12:41:35.724Z,5.37
2019-01-30T12:44:01.953Z,6.70
2019-01-30T12:46:28.222Z,5.10
2019-01-30T12:48:54.638Z,7.43
2019-01-30T12:51:20.895Z,6.40
2019-01-30T12:53:47.159Z,5.13
2019-01-30T12:56:13.498Z,4.13
2019-01-30T12:58:39.666Z,4.67
2019-01-30T13:01:05.944Z,5.77
2019-01-30T13:03:32.247Z,5.00
2019-01-30T13:05:58.503Z,6.63
2019-01-30T13:08:24.660Z,7.13
2019-01-30T13:10:50.850Z,5.33
2019-01-30T13:13:16.998Z,5.70
2019-01-30T13:15:43.266Z,7.97
2019-01-30T13:18:17.903Z,5.27
2019-01-30T13:20:37.728Z,7.13
2019-01-30T13:23:04.284Z,8.20
2019-01-30T13:25:30.979Z,5.20
2019-01-30T13:27:57.345Z,5.37
2019-01-30T13:30:29.579Z,5.90
2019-01-30T13:32:56.079Z,7.10
2019-01-30T13:35:22.548Z,6.83
2019-01-30T13:37:48.701Z,5.50
2019-01-30T13:40:21.200Z,8.43
2019-01-30T13:42:47.465Z,8.00
2019-01-30T13:45:13.641Z,7.70
2019-01-30T13:47:40.286Z,6.87
2019-01-30T13:50:12.642Z,6.53
2019-01-30T13:52:38.807Z,6.90
2019-01-30T13:55:07.443Z,7.53
2019-01-30T13:57:34.784Z,4.30
2019-01-30T14:00:00.994Z,5.37
2019-01-30T14:02:27.279Z,7.90
2019-01-30T14:04:59.375Z,4.63
2019-01-30T14:07:21.508Z,5.27
2019-01-30T14:09:47.819Z,4.77
2019-01-30T14:12:14.051Z,3.80
2019-01-30T14:14:40.321Z,6.23
2019-01-30T14:17:06.629Z,4.83
2019-01-30T14:19:32.911Z,6.03
2019-01-30T14:21:59.103Z,7.77
2019-01-30T14:24:25.310Z,9.27
2019-01-30T14:26:51.483Z,3.30
2019-01-30T14:29:17.806Z,6.80
2019-01-30T14:31:44.113Z,4.50
2019-01-30T14:34:10.283Z,5.27
2019-01-30T14:36:36.473Z,5.43
2019-01-30T14:39:05.836Z,4.87
2019-01-30T14:41:32.089Z,6.67
2019-01-30T14:43:58.252Z,7.37
2019-01-30T14:46:24.464Z,6.67
2019-01-30T14:48:50.649Z,4.50
2019-01-30T14:51:16.778Z,7.27
2019-01-30T14:53:42.992Z,9.10
2019-01-30T14:56:09.161Z,5.17
2019-01-30T14:58:35.339Z,11.50
2019-01-30T15:01:01.541Z,12.70
2019-01-30T15:03:31.620Z,13.53
2019-01-30T15:05:57.823Z,10.20
2019-01-30T15:08:24.015Z,9.57
2019-01-30T15:10:50.341Z,11.93
2019-01-30T15:13:16.660Z,13.40
2019-01-30T15:15:44.268Z,13.27
2019-01-30T15:18:10.694Z,11.67
2019-01-30T15:20:36.821Z,9.43
2019-01-30T15:23:04.629Z,10.78
2019-01-30T15:25:30.893Z,11.33
2019-01-30T15:27:57.059Z,8.00
2019-01-30T15:30:32.269Z,9.70
2019-01-30T15:32:58.443Z,9.47
2019-01-30T15:35:33.270Z,8.77
2019-01-30T15:37:52.809Z,11.10
2019-01-30T15:40:24.604Z,11.10
2019-01-30T15:42:50.771Z,16.53
2019-01-30T15:45:19.383Z,13.60
2019-01-30T15:47:45.543Z,35.07
2019-01-30T15:50:14.715Z,26.47
2019-01-30T15:52:40.918Z,20.03
2019-01-30T15:55:09.781Z,20.27
2019-01-30T15:57:35.939Z,27.83
2019-01-30T16:00:05.902Z,36.30
2019-01-30T16:02:32.177Z,35.87
2019-01-30T16:04:58.344Z,47.27
2019-01-30T16:07:24.546Z,28.33
2019-01-30T16:09:50.719Z,37.73
2019-01-30T16:12:16.888Z,26.93
2019-01-30T16:14:43.082Z,35.00
2019-01-30T16:17:09.243Z,41.03
2019-01-30T16:19:35.670Z,42.90
2019-01-30T16:22:01.871Z,36.33
2019-01-30T16:24:28.139Z,37.67
2019-01-30T16:26:54.301Z,45.23
2019-01-30T16:29:20.519Z,51.80
2019-01-30T16:31:46.786Z,32.93
2019-01-30T16:34:14.298Z,46.61
2019-01-30T16:36:40.500Z,44.00
2019-01-30T16:39:08.116Z,56.40
2019-01-30T16:41:34.282Z,58.33
2019-01-30T16:44:00.489Z,63.57
2019-01-30T16:46:26.765Z,60.57
2019-01-30T16:48:57.381Z,45.23
2019-01-30T16:51:30.207Z,33.23
2019-01-30T16:53:56.360Z,32.80
2019-01-30T16:56:22.630Z,167.87
2019-01-30T16:58:48.922Z,31.90
2019-01-30T17:01:15.196Z,46.90
2019-01-30T17:03:41.456Z,49.70
2019-01-30T17:06:07.936Z,37.43
2019-01-30T17:08:34.472Z,41.27
2019-01-30T17:11:00.766Z,36.17
2019-01-30T17:13:26.958Z,39.20
2019-01-30T17:15:53.117Z,49.93
2019-01-30T17:18:19.388Z,40.47
2019-01-30T17:20:45.682Z,35.60
2019-01-30T17:23:11.847Z,37.47
2019-01-30T17:25:38.661Z,45.40
2019-01-30T17:28:04.849Z,53.47
2019-01-30T17:30:37.248Z,42.67
2019-01-30T17:33:03.706Z,66.80
2019-01-30T17:35:29.914Z,61.53
2019-01-30T17:37:56.084Z,36.40
2019-01-30T17:40:24.162Z,34.13
2019-01-30T17:42:50.362Z,23.57
2019-01-30T17:45:16.628Z,19.80
2019-01-30T17:47:43.193Z,17.27
2019-01-30T17:50:15.640Z,10.77
2019-01-30T17:52:41.807Z,9.50
2019-01-30T17:55:08.184Z,10.37
2019-01-30T17:57:34.463Z,14.87
2019-01-30T18:00:00.734Z,13.20
2019-01-30T18:02:27.731Z,12.57
2019-01-30T18:04:53.933Z,23.50
2019-01-30T18:07:20.110Z,22.77
2019-01-30T18:09:46.295Z,17.60
2019-01-30T18:12:12.756Z,37.57
2019-01-30T18:14:38.928Z,25.27
2019-01-30T18:17:05.121Z,18.47
2019-01-30T18:19:31.425Z,27.03
2019-01-30T18:21:57.686Z,18.00
2019-01-30T18:24:23.853Z,30.43
2019-01-30T18:26:50.052Z,41.13
2019-01-30T18:29:16.236Z,49.27
2019-01-30T18:31:42.404Z,40.30
2019-01-30T18:34:08.842Z,49.00
2019-01-30T18:36:41.045Z,53.50
2019-01-30T18:39:07.272Z,57.23
2019-01-30T18:41:33.573Z,60.53
2019-01-30T18:43:59.726Z,53.77
2019-01-30T18:46:25.991Z,49.40
2019-01-30T18:48:52.170Z,51.73
2019-01-30T18:51:18.329Z,41.37
2019-01-30T18:53:44.501Z,47.47
2019-01-30T18:56:10.713Z,36.67
2019-01-30T18:58:36.868Z,37.73
2019-01-30T19:01:03.428Z,51.30
2019-01-30T19:03:29.690Z,55.63
2019-01-30T19:05:55.858Z,40.93
2019-01-30T19:08:22.016Z,60.50
2019-01-30T19:10:48.477Z,34.80
2019-01-30T19:13:14.655Z,30.43
2019-01-30T19:15:40.810Z,43.50
2019-01-30T19:18:07.098Z,45.83
2019-01-30T19:20:39.354Z,50.50
2019-01-30T19:23:07.018Z,45.80
2019-01-30T19:25:33.401Z,22.83
2019-01-30T19:27:59.552Z,41.57
2019-01-30T19:30:28.620Z,31.97
2019-01-30T19:32:54.908Z,44.13
2019-01-30T19:35:21.272Z,37.03
2019-01-30T19:37:47.428Z,39.33
2019-01-30T19:40:14.729Z,31.10
2019-01-30T19:42:40.896Z,33.37
2019-01-30T19:45:10.564Z,35.40
2019-01-30T19:47:36.747Z,36.60
2019-01-30T19:50:06.634Z,35.40
2019-01-30T19:52:32.796Z,39.27
2019-01-30T19:54:59.032Z,26.13
2019-01-30T19:57:25.357Z,33.53
2019-01-30T19:59:51.519Z,42.07
2019-01-30T20:02:17.735Z,44.27
2019-01-30T20:04:44.018Z,42.53
2019-01-30T20:07:14.744Z,41.67
2019-01-30T20:09:38.698Z,34.23
2019-01-30T20:12:04.952Z,35.40
2019-01-30T20:14:31.105Z,30.70
2019-01-30T20:16:57.303Z,33.77
2019-01-30T20:19:23.464Z,34.27
2019-01-30T20:21:49.939Z,33.17
2019-01-30T20:24:16.140Z,27.10
2019-01-30T20:26:42.399Z,28.80
2019-01-30T20:29:08.562Z,38.03
2019-01-30T20:31:34.863Z,37.70
2019-01-30T20:34:09.917Z,36.47
2019-01-30T20:36:29.222Z,36.70
2019-01-30T20:38:55.482Z,38.30
2019-01-30T20:41:21.644Z,33.27
2019-01-30T20:43:47.795Z,27.23
2019-01-30T20:46:14.000Z,29.43
2019-01-30T20:48:47.187Z,32.33
2019-01-30T20:51:08.440Z,28.47
2019-01-30T20:53:34.622Z,38.03
2019-01-30T20:56:00.776Z,23.90
2019-01-30T20:58:27.242Z,28.67
2019-01-30T21:00:53.441Z,36.07
2019-01-30T21:03:19.593Z,30.27
2019-01-30T21:05:45.905Z,28.93
2019-01-30T21:08:12.200Z,23.87
2019-01-30T21:10:39.062Z,41.23
2019-01-30T21:13:05.632Z,38.63
2019-01-30T21:15:31.820Z,26.83
2019-01-30T21:17:57.989Z,37.30
2019-01-30T21:20:24.251Z,29.80
2019-01-30T21:22:50.438Z,35.30
2019-01-30T21:25:20.741Z,40.40
2019-01-30T21:27:47.603Z,24.73
2019-01-30T21:30:26.397Z,29.43
2019-01-30T21:32:52.556Z,30.40
2019-01-30T21:35:19.559Z,36.30
2019-01-30T21:37:48.938Z,29.07
2019-01-30T21:40:16.223Z,33.50
2019-01-30T21:42:42.705Z,17.70
2019-01-30T21:45:15.000Z,33.23
2019-01-30T21:47:41.161Z,36.70
2019-01-30T21:50:08.612Z,31.63
2019-01-30T21:52:34.903Z,37.00
2019-01-30T21:55:01.072Z,36.07
2019-01-30T21:57:27.213Z,36.60
2019-01-30T21:59:53.400Z,48.20
2019-01-30T22:02:19.555Z,45.10
2019-01-30T22:04:45.711Z,34.13
2019-01-30T22:07:11.951Z,45.67
2019-01-30T22:09:38.095Z,44.03
2019-01-30T22:12:04.359Z,35.83
2019-01-30T22:14:30.549Z,30.30
2019-01-30T22:16:56.713Z,37.60
2019-01-30T22:19:22.868Z,29.63
2019-01-30T22:21:49.359Z,30.57
2019-01-30T22:24:15.517Z,43.30
2019-01-30T22:26:41.688Z,33.13
2019-01-30T22:29:07.873Z,43.70
2019-01-30T22:31:34.136Z,44.83
2019-01-30T22:34:00.302Z,44.17
2019-01-30T22:36:26.483Z,47.73
2019-01-30T22:38:52.631Z,44.40
2019-01-30T22:41:18.779Z,51.70
2019-01-30T22:43:44.972Z,23.33
2019-01-30T22:46:11.128Z,48.37
2019-01-30T22:48:37.289Z,47.20
2019-01-30T22:51:03.480Z,45.40
2019-01-30T22:53:29.642Z,46.80
2019-01-30T22:55:55.801Z,32.60
2019-01-30T22:58:21.991Z,38.73
2019-01-30T23:00:59.634Z,39.73
2019-01-30T23:03:38.728Z,28.13
2019-01-30T23:06:28.082Z,22.90
2019-01-30T23:09:31.464Z,34.33
2019-01-30T23:12:13.314Z,31.60
2019-01-30T23:14:43.108Z,30.90
2019-01-30T23:17:19.121Z,31.47
2019-01-30T23:19:48.921Z,33.03
2019-01-30T23:22:24.472Z,25.70
2019-01-30T23:25:06.044Z,21.57
2019-01-30T23:27:38.560Z,34.80
2019-01-30T23:30:31.278Z,35.47
2019-01-30T23:33:18.631Z,36.77
2019-01-30T23:35:54.260Z,30.87
2019-01-30T23:38:46.690Z,21.70
2019-01-30T23:41:31.277Z,27.67
2019-01-30T23:44:06.962Z,23.20
2019-01-30T23:46:56.635Z,20.20
2019-01-30T23:49:32.383Z,25.50
2019-01-30T23:52:17.470Z,19.37
2019-01-30T23:55:05.144Z,30.07
2019-01-30T23:57:41.144Z,29.43
